Aviation Digital Data Service (ADDS)

Output produced by METARs form (0037 UTC 21 February 2017)
found at http://aviationweather.gov/adds/metars/
 
KRUT 202329Z 2100/2124 VRB04KT P6SM SKC 
     FM210300 12005KT P6SM SKC 
     FM211700 16008KT P6SM BKN150